sensor_id;sensor_type;location;lat;lon;timestamp;pressure;altitude;pressure_sealevel;temperature;humidity
46015;BME280;36844;51.898;-0.874;2024-03-06T00:01:37;100670.94;;;18.28;
46015;BME280;36844;51.898;-0.874;2024-03-06T00:04:03;100692.06;;;18.33;
46015;BME280;36844;51.898;-0.874;2024-03-06T00:06:29;100687.13;;;18.28;
46015;BME280;36844;51.898;-0.874;2024-03-06T00:08:55;100675.16;;;18.22;
46015;BME280;36844;51.898;-0.874;2024-03-06T00:11:20;100679.00;;;18.21;
46015;BME280;36844;51.898;-0.874;2024-03-06T00:13:46;100682.91;;;18.20;
46015;BME280;36844;51.898;-0.874;2024-03-06T00:16:13;100685.19;;;18.18;
46015;BME280;36844;51.898;-0.874;2024-03-06T00:18:38;100677.88;;;18.15;
46015;BME280;36844;51.898;-0.874;2024-03-06T00:21:04;100695.94;;;18.21;
46015;BME280;36844;51.898;-0.874;2024-03-06T00:23:29;100693.28;;;18.11;
46015;BME280;36844;51.898;-0.874;2024-03-06T00:25:55;100714.47;;;18.19;
46015;BME280;36844;51.898;-0.874;2024-03-06T00:28:21;100696.78;;;18.04;
46015;BME280;36844;51.898;-0.874;2024-03-06T00:30:46;100715.25;;;18.16;
46015;BME280;36844;51.898;-0.874;2024-03-06T00:33:12;100709.13;;;18.09;
46015;BME280;36844;51.898;-0.874;2024-03-06T00:35:37;100713.34;;;18.10;
46015;BME280;36844;51.898;-0.874;2024-03-06T00:38:02;100717.97;;;18.06;
46015;BME280;36844;51.898;-0.874;2024-03-06T00:40:28;100718.72;;;18.10;
46015;BME280;36844;51.898;-0.874;2024-03-06T00:42:56;100719.13;;;18.05;
46015;BME280;36844;51.898;-0.874;2024-03-06T00:45:22;100716.03;;;18.03;
46015;BME280;36844;51.898;-0.874;2024-03-06T00:47:47;100689.91;;;17.82;
46015;BME280;36844;51.898;-0.874;2024-03-06T00:50:13;100719.91;;;18.02;
46015;BME280;36844;51.898;-0.874;2024-03-06T00:52:38;100721.84;;;18.01;
46015;BME280;36844;51.898;-0.874;2024-03-06T00:55:04;100707.97;;;17.96;
46015;BME280;36844;51.898;-0.874;2024-03-06T00:57:30;100690.66;;;17.83;
46015;BME280;36844;51.898;-0.874;2024-03-06T00:59:56;100710.66;;;17.92;
46015;BME280;36844;51.898;-0.874;2024-03-06T01:02:21;100710.28;;;17.94;
46015;BME280;36844;51.898;-0.874;2024-03-06T01:04:46;100709.91;;;17.92;
46015;BME280;36844;51.898;-0.874;2024-03-06T01:07:12;100716.44;;;17.91;
46015;BME280;36844;51.898;-0.874;2024-03-06T01:09:37;100703.00;;;17.77;
46015;BME280;36844;51.898;-0.874;2024-03-06T01:12:02;100720.69;;;17.88;
46015;BME280;36844;51.898;-0.874;2024-03-06T01:14:28;100704.53;;;17.74;
46015;BME280;36844;51.898;-0.874;2024-03-06T01:16:53;100727.63;;;17.86;
46015;BME280;36844;51.898;-0.874;2024-03-06T01:19:18;100722.22;;;17.78;
46015;BME280;36844;51.898;-0.874;2024-03-06T01:21:44;100723.78;;;17.76;
46015;BME280;36844;51.898;-0.874;2024-03-06T01:24:09;100718.75;;;17.74;
46015;BME280;36844;51.898;-0.874;2024-03-06T01:26:34;100726.47;;;17.80;
46015;BME280;36844;51.898;-0.874;2024-03-06T01:28:59;100707.66;;;17.62;
46015;BME280;36844;51.898;-0.874;2024-03-06T01:31:25;100726.84;;;17.74;
46015;BME280;36844;51.898;-0.874;2024-03-06T01:33:50;100720.72;;;17.70;
46015;BME280;36844;51.898;-0.874;2024-03-06T01:36:15;100730.31;;;17.71;
46015;BME280;36844;51.898;-0.874;2024-03-06T01:38:41;100716.47;;;17.62;
46015;BME280;36844;51.898;-0.874;2024-03-06T01:41:06;100721.84;;;17.66;
46015;BME280;36844;51.898;-0.874;2024-03-06T01:43:37;100699.16;;;17.49;
46015;BME280;36844;51.898;-0.874;2024-03-06T01:46:02;100708.78;;;17.57;
46015;BME280;36844;51.898;-0.874;2024-03-06T01:48:29;100724.56;;;17.62;
46015;BME280;36844;51.898;-0.874;2024-03-06T01:50:57;100719.91;;;17.63;
46015;BME280;36844;51.898;-0.874;2024-03-06T01:53:27;100721.13;;;17.62;
46015;BME280;36844;51.898;-0.874;2024-03-06T01:55:54;100707.25;;;17.53;
46015;BME280;36844;51.898;-0.874;2024-03-06T01:58:20;100695.69;;;17.38;
46015;BME280;36844;51.898;-0.874;2024-03-06T02:00:46;100716.09;;;17.50;
46015;BME280;36844;51.898;-0.874;2024-03-06T02:03:12;100729.16;;;17.51;
46015;BME280;36844;51.898;-0.874;2024-03-06T02:05:37;100713.78;;;17.41;
46015;BME280;36844;51.898;-0.874;2024-03-06T02:08:03;100717.66;;;17.47;
46015;BME280;36844;51.898;-0.874;2024-03-06T02:10:29;100737.63;;;17.53;
46015;BME280;36844;51.898;-0.874;2024-03-06T02:12:55;100728.00;;;17.45;
46015;BME280;36844;51.898;-0.874;2024-03-06T02:15:21;100734.53;;;17.51;
46015;BME280;36844;51.898;-0.874;2024-03-06T02:17:46;100731.47;;;17.49;
46015;BME280;36844;51.898;-0.874;2024-03-06T02:20:11;100736.09;;;17.49;
46015;BME280;36844;51.898;-0.874;2024-03-06T02:22:39;100711.84;;;17.35;
46015;BME280;36844;51.898;-0.874;2024-03-06T02:25:05;100714.13;;;17.36;
46015;BME280;36844;51.898;-0.874;2024-03-06T02:27:31;100724.19;;;17.39;
46015;BME280;36844;51.898;-0.874;2024-03-06T02:29:56;100732.63;;;17.41;
46015;BME280;36844;51.898;-0.874;2024-03-06T02:32:23;100731.47;;;17.42;
46015;BME280;36844;51.898;-0.874;2024-03-06T02:34:49;100720.72;;;17.32;
46015;BME280;36844;51.898;-0.874;2024-03-06T02:37:15;100718.38;;;17.30;
46015;BME280;36844;51.898;-0.874;2024-03-06T02:39:40;100723.00;;;17.33;
46015;BME280;36844;51.898;-0.874;2024-03-06T02:42:05;100716.81;;;17.29;
46015;BME280;36844;51.898;-0.874;2024-03-06T02:44:32;100722.63;;;17.35;
46015;BME280;36844;51.898;-0.874;2024-03-06T02:46:57;100716.03;;;17.29;
46015;BME280;36844;51.898;-0.874;2024-03-06T02:49:22;100713.78;;;17.24;
46015;BME280;36844;51.898;-0.874;2024-03-06T02:51:48;100728.38;;;17.33;
46015;BME280;36844;51.898;-0.874;2024-03-06T02:54:13;100721.06;;;17.30;
46015;BME280;36844;51.898;-0.874;2024-03-06T02:56:39;100709.53;;;17.19;
46015;BME280;36844;51.898;-0.874;2024-03-06T02:59:04;100718.75;;;17.25;
46015;BME280;36844;51.898;-0.874;2024-03-06T03:01:30;100731.47;;;17.28;
46015;BME280;36844;51.898;-0.874;2024-03-06T03:03:56;100728.78;;;17.28;
46015;BME280;36844;51.898;-0.874;2024-03-06T03:06:22;100732.63;;;17.27;
46015;BME280;36844;51.898;-0.874;2024-03-06T03:08:49;100729.16;;;17.27;
46015;BME280;36844;51.898;-0.874;2024-03-06T03:11:14;100729.50;;;17.25;
46015;BME280;36844;51.898;-0.874;2024-03-06T03:13:41;100732.63;;;17.24;
46015;BME280;36844;51.898;-0.874;2024-03-06T03:16:06;100716.03;;;17.18;
46015;BME280;36844;51.898;-0.874;2024-03-06T03:18:32;100718.72;;;17.15;
46015;BME280;36844;51.898;-0.874;2024-03-06T03:20:57;100723.75;;;17.16;
46015;BME280;36844;51.898;-0.874;2024-03-06T03:23:23;100718.72;;;17.11;
46015;BME280;36844;51.898;-0.874;2024-03-06T03:25:48;100724.50;;;17.13;
46015;BME280;36844;51.898;-0.874;2024-03-06T03:28:16;100723.34;;;17.14;
46015;BME280;36844;51.898;-0.874;2024-03-06T03:30:44;100721.81;;;17.10;
46015;BME280;36844;51.898;-0.874;2024-03-06T03:33:10;100724.13;;;17.11;
46015;BME280;36844;51.898;-0.874;2024-03-06T03:35:35;100718.72;;;17.04;
46015;BME280;36844;51.898;-0.874;2024-03-06T03:38:01;100730.66;;;17.14;
46015;BME280;36844;51.898;-0.874;2024-03-06T03:40:26;100727.94;;;17.10;
46015;BME280;36844;51.898;-0.874;2024-03-06T03:42:51;100700.25;;;16.96;
46015;BME280;36844;51.898;-0.874;2024-03-06T03:45:17;100724.13;;;17.11;
46015;BME280;36844;51.898;-0.874;2024-03-06T03:47:42;100708.31;;;16.99;
46015;BME280;36844;51.898;-0.874;2024-03-06T03:50:08;100713.69;;;16.99;
46015;BME280;36844;51.898;-0.874;2024-03-06T03:52:34;100716.41;;;17.03;
46015;BME280;36844;51.898;-0.874;2024-03-06T03:54:59;100727.19;;;17.06;
46015;BME280;36844;51.898;-0.874;2024-03-06T03:57:24;100693.72;;;16.90;
46015;BME280;36844;51.898;-0.874;2024-03-06T03:59:50;100720.63;;;17.00;
46015;BME280;36844;51.898;-0.874;2024-03-06T04:02:16;100726.78;;;17.04;
46015;BME280;36844;51.898;-0.874;2024-03-06T04:04:41;100726.00;;;17.00;
46015;BME280;36844;51.898;-0.874;2024-03-06T04:07:07;100721.41;;;16.97;
46015;BME280;36844;51.898;-0.874;2024-03-06T04:09:32;100703.31;;;16.87;
46015;BME280;36844;51.898;-0.874;2024-03-06T04:12:01;100720.25;;;16.98;
46015;BME280;36844;51.898;-0.874;2024-03-06T04:14:26;100691.38;;;16.81;
46015;BME280;36844;51.898;-0.874;2024-03-06T04:16:52;100717.16;;;16.93;
46015;BME280;36844;51.898;-0.874;2024-03-06T04:19:17;100724.84;;;16.98;
46015;BME280;36844;51.898;-0.874;2024-03-06T04:21:43;100716.75;;;16.87;
46015;BME280;36844;51.898;-0.874;2024-03-06T04:24:09;100729.06;;;16.92;
46015;BME280;36844;51.898;-0.874;2024-03-06T04:26:35;100742.50;;;16.95;
46015;BME280;36844;51.898;-0.874;2024-03-06T04:29:00;100738.69;;;16.93;
46015;BME280;36844;51.898;-0.874;2024-03-06T04:31:26;100729.81;;;16.85;
46015;BME280;36844;51.898;-0.874;2024-03-06T04:33:51;100693.63;;;16.65;
46015;BME280;36844;51.898;-0.874;2024-03-06T04:36:16;100730.94;;;16.84;
46015;BME280;36844;51.898;-0.874;2024-03-06T04:38:42;100724.44;;;16.82;
46015;BME280;36844;51.898;-0.874;2024-03-06T04:41:07;100737.50;;;16.83;
46015;BME280;36844;51.898;-0.874;2024-03-06T04:43:33;100749.03;;;16.91;
46015;BME280;36844;51.898;-0.874;2024-03-06T04:46:00;100725.56;;;16.77;
46015;BME280;36844;51.898;-0.874;2024-03-06T04:48:25;100742.84;;;16.79;
46015;BME280;36844;51.898;-0.874;2024-03-06T04:50:51;100737.88;;;16.78;
46015;BME280;36844;51.898;-0.874;2024-03-06T04:53:16;100752.84;;;16.83;
46015;BME280;36844;51.898;-0.874;2024-03-06T04:55:41;100761.72;;;16.87;
46015;BME280;36844;51.898;-0.874;2024-03-06T04:58:07;100744.38;;;16.73;
46015;BME280;36844;51.898;-0.874;2024-03-06T05:00:32;100745.16;;;16.77;
46015;BME280;36844;51.898;-0.874;2024-03-06T05:02:57;100743.25;;;16.74;
46015;BME280;36844;51.898;-0.874;2024-03-06T05:05:23;100765.13;;;16.83;
46015;BME280;36844;51.898;-0.874;2024-03-06T05:07:50;100760.53;;;16.77;
46015;BME280;36844;51.898;-0.874;2024-03-06T05:10:15;100751.66;;;16.73;
46015;BME280;36844;51.898;-0.874;2024-03-06T05:12:41;100765.91;;;16.80;
46015;BME280;36844;51.898;-0.874;2024-03-06T05:15:07;100755.13;;;16.73;
46015;BME280;36844;51.898;-0.874;2024-03-06T05:17:33;100747.41;;;16.68;
46015;BME280;36844;51.898;-0.874;2024-03-06T05:19:59;100757.44;;;16.75;
46015;BME280;36844;51.898;-0.874;2024-03-06T05:22:24;100750.88;;;16.69;
46015;BME280;36844;51.898;-0.874;2024-03-06T05:24:49;100766.69;;;16.77;
46015;BME280;36844;51.898;-0.874;2024-03-06T05:27:15;100742.41;;;16.63;
46015;BME280;36844;51.898;-0.874;2024-03-06T05:29:42;100765.88;;;16.70;
46015;BME280;36844;51.898;-0.874;2024-03-06T05:32:08;100757.00;;;16.62;
46015;BME280;36844;51.898;-0.874;2024-03-06T05:34:33;100751.97;;;16.57;
46015;BME280;36844;51.898;-0.874;2024-03-06T05:36:59;100782.78;;;16.70;
46015;BME280;36844;51.898;-0.874;2024-03-06T05:39:24;100783.53;;;16.71;
46015;BME280;36844;51.898;-0.874;2024-03-06T05:41:50;100780.44;;;16.65;
46015;BME280;36844;51.898;-0.874;2024-03-06T05:44:15;100782.00;;;16.66;
46015;BME280;36844;51.898;-0.874;2024-03-06T05:46:40;100777.75;;;16.62;
46015;BME280;36844;51.898;-0.874;2024-03-06T05:49:05;100790.81;;;16.67;
46015;BME280;36844;51.898;-0.874;2024-03-06T05:51:31;100787.72;;;16.65;
46015;BME280;36844;51.898;-0.874;2024-03-06T05:53:56;100793.13;;;16.68;
46015;BME280;36844;51.898;-0.874;2024-03-06T05:56:22;100792.38;;;16.68;
46015;BME280;36844;51.898;-0.874;2024-03-06T05:58:47;100789.25;;;16.59;
46015;BME280;36844;51.898;-0.874;2024-03-06T06:01:15;100771.16;;;16.52;
46015;BME280;36844;51.898;-0.874;2024-03-06T06:03:41;100802.72;;;16.66;
46015;BME280;36844;51.898;-0.874;2024-03-06T06:06:06;100781.91;;;16.52;
46015;BME280;36844;51.898;-0.874;2024-03-06T06:08:33;100796.94;;;16.60;
46015;BME280;36844;51.898;-0.874;2024-03-06T06:10:59;100793.06;;;16.54;
46015;BME280;36844;51.898;-0.874;2024-03-06T06:13:24;100809.63;;;16.63;
46015;BME280;36844;51.898;-0.874;2024-03-06T06:15:49;100794.22;;;16.57;
46015;BME280;36844;51.898;-0.874;2024-03-06T06:18:14;100785.75;;;16.51;
46015;BME280;36844;51.898;-0.874;2024-03-06T06:20:41;100807.31;;;16.62;
46015;BME280;36844;51.898;-0.874;2024-03-06T06:23:07;100811.91;;;16.58;
46015;BME280;36844;51.898;-0.874;2024-03-06T06:25:32;100811.88;;;16.54;
46015;BME280;36844;51.898;-0.874;2024-03-06T06:27:58;100803.00;;;16.47;
46015;BME280;36844;51.898;-0.874;2024-03-06T06:30:23;100821.09;;;16.57;
46015;BME280;36844;51.898;-0.874;2024-03-06T06:32:48;100825.34;;;16.58;
46015;BME280;36844;51.898;-0.874;2024-03-06T06:35:14;100813.41;;;16.52;
46015;BME280;36844;51.898;-0.874;2024-03-06T06:37:39;100815.69;;;16.50;
46015;BME280;36844;51.898;-0.874;2024-03-06T06:40:06;100830.34;;;16.56;
46015;BME280;36844;51.898;-0.874;2024-03-06T06:42:33;100822.56;;;16.44;
46015;BME280;36844;51.898;-0.874;2024-03-06T06:44:59;100838.41;;;16.56;
46015;BME280;36844;51.898;-0.874;2024-03-06T06:47:24;100820.28;;;16.46;
46015;BME280;36844;51.898;-0.874;2024-03-06T06:49:49;100840.31;;;16.55;
46015;BME280;36844;51.898;-0.874;2024-03-06T06:52:15;100824.13;;;16.45;
46015;BME280;36844;51.898;-0.874;2024-03-06T06:54:40;100830.66;;;16.47;
46015;BME280;36844;51.898;-0.874;2024-03-06T06:57:06;100838.75;;;16.51;
46015;BME280;36844;51.898;-0.874;2024-03-06T06:59:31;100823.75;;;16.46;
46015;BME280;36844;51.898;-0.874;2024-03-06T07:01:56;100840.31;;;16.55;
46015;BME280;36844;51.898;-0.874;2024-03-06T07:04:22;100824.88;;;16.45;
46015;BME280;36844;51.898;-0.874;2024-03-06T07:06:47;100819.88;;;16.44;
46015;BME280;36844;51.898;-0.874;2024-03-06T07:09:12;100838.38;;;16.52;
46015;BME280;36844;51.898;-0.874;2024-03-06T07:11:40;100854.19;;;16.64;
46015;BME280;36844;51.898;-0.874;2024-03-06T07:14:07;100846.09;;;16.61;
46015;BME280;36844;51.898;-0.874;2024-03-06T07:16:32;100846.88;;;16.61;
46015;BME280;36844;51.898;-0.874;2024-03-06T07:18:57;100860.41;;;16.72;
46015;BME280;36844;51.898;-0.874;2024-03-06T07:21:25;100857.31;;;16.70;
46015;BME280;36844;51.898;-0.874;2024-03-06T07:23:50;100855.41;;;16.70;
46015;BME280;36844;51.898;-0.874;2024-03-06T07:26:15;100863.88;;;16.79;
46015;BME280;36844;51.898;-0.874;2024-03-06T07:28:41;100862.41;;;16.82;
46015;BME280;36844;51.898;-0.874;2024-03-06T07:31:06;100874.72;;;16.90;
46015;BME280;36844;51.898;-0.874;2024-03-06T07:33:31;100831.91;;;16.64;
46015;BME280;36844;51.898;-0.874;2024-03-06T07:35:59;100870.91;;;16.95;
46015;BME280;36844;51.898;-0.874;2024-03-06T07:38:24;100865.91;;;16.93;
46015;BME280;36844;51.898;-0.874;2024-03-06T07:40:49;100855.50;;;16.95;
46015;BME280;36844;51.898;-0.874;2024-03-06T07:43:15;100863.63;;;17.02;
46015;BME280;36844;51.898;-0.874;2024-03-06T07:45:40;100874.81;;;17.08;
46015;BME280;36844;51.898;-0.874;2024-03-06T07:48:06;100871.38;;;17.14;
46015;BME280;36844;51.898;-0.874;2024-03-06T07:50:31;100870.63;;;17.17;
46015;BME280;36844;51.898;-0.874;2024-03-06T07:52:56;100876.81;;;17.21;
46015;BME280;36844;51.898;-0.874;2024-03-06T07:55:22;100856.41;;;17.17;
46015;BME280;36844;51.898;-0.874;2024-03-06T07:57:48;100872.19;;;17.29;
46015;BME280;36844;51.898;-0.874;2024-03-06T08:00:13;100862.59;;;17.24;
46015;BME280;36844;51.898;-0.874;2024-03-06T08:02:45;100875.31;;;17.41;
46015;BME280;36844;51.898;-0.874;2024-03-06T08:05:15;100860.72;;;17.39;
46015;BME280;36844;51.898;-0.874;2024-03-06T08:07:40;100865.34;;;17.42;
46015;BME280;36844;51.898;-0.874;2024-03-06T08:10:10;100871.16;;;17.51;
46015;BME280;36844;51.898;-0.874;2024-03-06T08:12:41;100863.78;;;17.48;
46015;BME280;36844;51.898;-0.874;2024-03-06T08:15:09;100871.91;;;17.55;
46015;BME280;36844;51.898;-0.874;2024-03-06T08:17:35;100872.69;;;17.59;
46015;BME280;36844;51.898;-0.874;2024-03-06T08:20:02;100863.09;;;17.58;
46015;BME280;36844;51.898;-0.874;2024-03-06T08:22:27;100871.53;;;17.60;
46015;BME280;36844;51.898;-0.874;2024-03-06T08:24:52;100878.88;;;17.66;
46015;BME280;36844;51.898;-0.874;2024-03-06T08:27:17;100877.72;;;17.71;
46015;BME280;36844;51.898;-0.874;2024-03-06T08:29:43;100875.78;;;17.71;
46015;BME280;36844;51.898;-0.874;2024-03-06T08:32:08;100876.56;;;17.75;
46015;BME280;36844;51.898;-0.874;2024-03-06T08:34:34;100890.06;;;17.86;
46015;BME280;36844;51.898;-0.874;2024-03-06T08:36:59;100880.03;;;17.76;
46015;BME280;36844;51.898;-0.874;2024-03-06T08:39:24;100896.22;;;17.87;
46015;BME280;36844;51.898;-0.874;2024-03-06T08:41:49;100896.22;;;17.83;
46015;BME280;36844;51.898;-0.874;2024-03-06T08:44:15;100912.38;;;17.94;
46015;BME280;36844;51.898;-0.874;2024-03-06T08:46:40;100918.16;;;17.96;
46015;BME280;36844;51.898;-0.874;2024-03-06T08:49:06;100913.56;;;17.93;
46015;BME280;36844;51.898;-0.874;2024-03-06T08:51:32;100906.63;;;17.92;
46015;BME280;36844;51.898;-0.874;2024-03-06T08:53:57;100897.78;;;17.88;
46015;BME280;36844;51.898;-0.874;2024-03-06T08:56:23;100908.16;;;17.93;
46015;BME280;36844;51.898;-0.874;2024-03-06T08:58:49;100900.47;;;17.88;
46015;BME280;36844;51.898;-0.874;2024-03-06T09:01:14;100922.44;;;18.00;
46015;BME280;36844;51.898;-0.874;2024-03-06T09:03:39;100917.81;;;17.97;
46015;BME280;36844;51.898;-0.874;2024-03-06T09:06:05;100913.16;;;17.94;
46015;BME280;36844;51.898;-0.874;2024-03-06T09:08:30;100923.19;;;18.01;
46015;BME280;36844;51.898;-0.874;2024-03-06T09:10:55;100928.97;;;18.03;
46015;BME280;36844;51.898;-0.874;2024-03-06T09:13:24;100920.88;;;17.92;
46015;BME280;36844;51.898;-0.874;2024-03-06T09:15:50;100930.13;;;18.02;
46015;BME280;36844;51.898;-0.874;2024-03-06T09:18:15;100936.28;;;18.02;
46015;BME280;36844;51.898;-0.874;2024-03-06T09:20:41;100937.03;;;17.96;
46015;BME280;36844;51.898;-0.874;2024-03-06T09:23:07;100937.03;;;17.96;
46015;BME280;36844;51.898;-0.874;2024-03-06T09:25:32;100933.94;;;17.94;
46015;BME280;36844;51.898;-0.874;2024-03-06T09:27:57;100938.19;;;17.95;
46015;BME280;36844;51.898;-0.874;2024-03-06T09:30:25;100940.91;;;17.95;
46015;BME280;36844;51.898;-0.874;2024-03-06T09:32:50;100926.63;;;17.84;
46015;BME280;36844;51.898;-0.874;2024-03-06T09:35:16;100930.09;;;17.84;
46015;BME280;36844;51.898;-0.874;2024-03-06T09:37:42;100945.50;;;17.91;
46015;BME280;36844;51.898;-0.874;2024-03-06T09:40:08;100959.38;;;17.93;
46015;BME280;36844;51.898;-0.874;2024-03-06T09:42:35;100952.81;;;17.90;
46015;BME280;36844;51.898;-0.874;2024-03-06T09:45:00;100952.03;;;17.83;
46015;BME280;36844;51.898;-0.874;2024-03-06T09:47:30;100951.66;;;17.81;
46015;BME280;36844;51.898;-0.874;2024-03-06T09:49:56;100954.34;;;17.81;
46015;BME280;36844;51.898;-0.874;2024-03-06T09:52:23;100966.28;;;17.83;
46015;BME280;36844;51.898;-0.874;2024-03-06T09:54:50;100969.34;;;17.82;
46015;BME280;36844;51.898;-0.874;2024-03-06T09:57:17;100961.63;;;17.73;
46015;BME280;36844;51.898;-0.874;2024-03-06T09:59:42;100960.06;;;17.68;
46015;BME280;36844;51.898;-0.874;2024-03-06T10:02:21;100972.41;;;17.73;
46015;BME280;36844;51.898;-0.874;2024-03-06T10:04:50;100976.63;;;17.70;
46015;BME280;36844;51.898;-0.874;2024-03-06T10:07:15;100982.03;;;17.70;
46015;BME280;36844;51.898;-0.874;2024-03-06T10:09:40;100968.13;;;17.61;
46015;BME280;36844;51.898;-0.874;2024-03-06T10:12:06;100973.53;;;17.65;
46015;BME280;36844;51.898;-0.874;2024-03-06T10:14:31;100976.22;;;17.65;
46015;BME280;36844;51.898;-0.874;2024-03-06T10:17:00;100966.91;;;17.55;
46015;BME280;36844;51.898;-0.874;2024-03-06T10:19:28;100958.47;;;17.46;
46015;BME280;36844;51.898;-0.874;2024-03-06T10:21:54;100987.00;;;17.61;
46015;BME280;36844;51.898;-0.874;2024-03-06T10:24:25;100971.53;;;17.51;
46015;BME280;36844;51.898;-0.874;2024-03-06T10:26:51;100990.81;;;17.57;
46015;BME280;36844;51.898;-0.874;2024-03-06T10:29:20;100971.50;;;17.44;
46015;BME280;36844;51.898;-0.874;2024-03-06T10:31:53;100991.56;;;17.54;
46015;BME280;36844;51.898;-0.874;2024-03-06T10:34:24;100994.63;;;17.52;
46015;BME280;36844;51.898;-0.874;2024-03-06T10:37:01;100987.66;;;17.48;
46015;BME280;36844;51.898;-0.874;2024-03-06T10:39:30;100989.22;;;17.49;
46015;BME280;36844;51.898;-0.874;2024-03-06T10:41:56;100984.97;;;17.44;
46015;BME280;36844;51.898;-0.874;2024-03-06T10:44:24;100964.91;;;17.31;
46015;BME280;36844;51.898;-0.874;2024-03-06T10:47:01;100983.03;;;17.38;
46015;BME280;36844;51.898;-0.874;2024-03-06T10:49:27;100981.88;;;17.39;
46015;BME280;36844;51.898;-0.874;2024-03-06T10:51:59;100987.63;;;17.41;
46015;BME280;36844;51.898;-0.874;2024-03-06T10:54:29;100980.28;;;17.31;
46015;BME280;36844;51.898;-0.874;2024-03-06T10:56:55;100984.91;;;17.34;
46015;BME280;36844;51.898;-0.874;2024-03-06T10:59:24;100979.88;;;17.29;
46015;BME280;36844;51.898;-0.874;2024-03-06T11:01:53;100984.91;;;17.30;
46015;BME280;36844;51.898;-0.874;2024-03-06T11:04:19;100982.19;;;17.23;
46015;BME280;36844;51.898;-0.874;2024-03-06T11:06:45;100993.38;;;17.32;
46015;BME280;36844;51.898;-0.874;2024-03-06T11:09:11;100984.88;;;17.27;
46015;BME280;36844;51.898;-0.874;2024-03-06T11:11:50;100989.91;;;17.28;
46015;BME280;36844;51.898;-0.874;2024-03-06T11:14:22;100993.75;;;17.31;
46015;BME280;36844;51.898;-0.874;2024-03-06T11:17:09;100982.94;;;17.20;
46015;BME280;36844;51.898;-0.874;2024-03-06T11:20:18;101002.94;;;17.26;
46015;BME280;36844;51.898;-0.874;2024-03-06T11:28:22;100980.97;;;17.14;
46015;BME280;36844;51.898;-0.874;2024-03-06T11:30:57;100999.09;;;17.24;
46015;BME280;36844;51.898;-0.874;2024-03-06T11:33:28;100997.53;;;17.19;
46015;BME280;36844;51.898;-0.874;2024-03-06T11:36:15;100999.09;;;17.20;
46015;BME280;36844;51.898;-0.874;2024-03-06T11:41:19;101001.03;;;17.23;
46015;BME280;36844;51.898;-0.874;2024-03-06T11:43:45;101003.75;;;17.30;
46015;BME280;36844;51.898;-0.874;2024-03-06T11:46:11;101012.97;;;17.33;
46015;BME280;36844;51.898;-0.874;2024-03-06T11:48:37;100994.50;;;17.24;
46015;BME280;36844;51.898;-0.874;2024-03-06T11:51:03;100989.91;;;17.28;
46015;BME280;36844;51.898;-0.874;2024-03-06T11:53:30;101009.16;;;17.37;
46015;BME280;36844;51.898;-0.874;2024-03-06T11:55:55;100993.78;;;17.34;
46015;BME280;36844;51.898;-0.874;2024-03-06T11:58:24;101001.88;;;17.38;
46015;BME280;36844;51.898;-0.874;2024-03-06T12:00:50;100985.25;;;17.29;
46015;BME280;36844;51.898;-0.874;2024-03-06T12:03:17;100995.34;;;17.39;
46015;BME280;36844;51.898;-0.874;2024-03-06T12:05:42;101002.31;;;17.47;
46015;BME280;36844;51.898;-0.874;2024-03-06T12:08:07;100987.63;;;17.37;
46015;BME280;36844;51.898;-0.874;2024-03-06T12:10:36;101002.31;;;17.43;
46015;BME280;36844;51.898;-0.874;2024-03-06T12:13:02;101003.81;;;17.48;
46015;BME280;36844;51.898;-0.874;2024-03-06T12:15:28;100986.53;;;17.45;
46015;BME280;36844;51.898;-0.874;2024-03-06T12:17:53;100987.28;;;17.42;
46015;BME280;36844;51.898;-0.874;2024-03-06T12:20:19;101003.91;;;17.58;
46015;BME280;36844;51.898;-0.874;2024-03-06T12:22:52;100998.13;;;17.60;
46015;BME280;36844;51.898;-0.874;2024-03-06T12:25:27;101003.16;;;17.61;
46015;BME280;36844;51.898;-0.874;2024-03-06T12:27:54;100998.56;;;17.65;
46015;BME280;36844;51.898;-0.874;2024-03-06T12:30:23;100992.41;;;17.68;
46015;BME280;36844;51.898;-0.874;2024-03-06T12:32:58;100990.84;;;17.71;
46015;BME280;36844;51.898;-0.874;2024-03-06T12:35:27;100981.97;;;17.67;
46015;BME280;36844;51.898;-0.874;2024-03-06T12:37:53;100978.16;;;17.71;
46015;BME280;36844;51.898;-0.874;2024-03-06T12:40:19;100986.31;;;17.82;
46015;BME280;36844;51.898;-0.874;2024-03-06T12:42:44;100982.44;;;17.83;
46015;BME280;36844;51.898;-0.874;2024-03-06T12:45:11;100980.91;;;17.86;
46015;BME280;36844;51.898;-0.874;2024-03-06T12:47:40;100973.97;;;17.85;
46015;BME280;36844;51.898;-0.874;2024-03-06T12:50:06;100986.72;;;17.95;
46015;BME280;36844;51.898;-0.874;2024-03-06T12:52:39;100977.84;;;17.87;
46015;BME280;36844;51.898;-0.874;2024-03-06T12:55:04;100989.41;;;17.98;
46015;BME280;36844;51.898;-0.874;2024-03-06T12:57:32;100996.75;;;18.05;
46015;BME280;36844;51.898;-0.874;2024-03-06T12:59:57;100983.28;;;18.01;
46015;BME280;36844;51.898;-0.874;2024-03-06T13:02:23;100984.81;;;18.02;
46015;BME280;36844;51.898;-0.874;2024-03-06T13:04:48;100974.78;;;17.99;
46015;BME280;36844;51.898;-0.874;2024-03-06T13:07:14;100984.44;;;18.11;
46015;BME280;36844;51.898;-0.874;2024-03-06T13:09:39;100975.56;;;18.07;
46015;BME280;36844;51.898;-0.874;2024-03-06T13:12:05;100976.34;;;18.07;
46015;BME280;36844;51.898;-0.874;2024-03-06T13:14:31;100984.44;;;18.14;
46015;BME280;36844;51.898;-0.874;2024-03-06T13:16:57;100970.16;;;18.10;
46015;BME280;36844;51.898;-0.874;2024-03-06T13:19:22;100959.00;;;17.98;
46015;BME280;36844;51.898;-0.874;2024-03-06T13:21:48;100986.78;;;18.19;
46015;BME280;36844;51.898;-0.874;2024-03-06T13:24:13;100995.22;;;18.21;
46015;BME280;36844;51.898;-0.874;2024-03-06T13:26:39;100976.34;;;18.07;
46015;BME280;36844;51.898;-0.874;2024-03-06T13:29:05;100985.63;;;18.20;
46015;BME280;36844;51.898;-0.874;2024-03-06T13:31:31;100984.06;;;18.19;
46015;BME280;36844;51.898;-0.874;2024-03-06T13:33:59;100965.94;;;18.06;
46015;BME280;36844;51.898;-0.874;2024-03-06T13:36:24;100947.47;;;17.97;